Time;durP1;ratioP1;P1;durP2;ratioP2;P2;SDS_P1;SDS_P2;PMS_P1;PMS_P2;Temp;Humidity;BMP_temperature;BMP_pressure;BME280_temperature;BME280_humidity;BME280_pressure;Samples;Min_cycle;Max_cycle;Signal;HPM_P1;HPM_P2
2022/11/30 00:01:26;;;;;;;;;;;;;;;;;;6122737;23;19916;-85
2022/11/30 00:03:51;;;;;;;;;;;;;;;;;;6121095;23;19959;-84
2022/11/30 00:06:21;;;;;;;;;;;;;;;;;;6144277;23;19927;-85
2022/11/30 00:08:47;;;;;;;;;;;;;;;;;;6123666;23;19987;-84
2022/11/30 00:11:13;;;;;;;;;;;;;;;;;;6146751;23;20006;-84
2022/11/30 00:13:39;;;;;;;;;;;;;;;;;;6124422;23;19920;-84
2022/11/30 00:16:05;;;;;;;;;;;;;;;;;;6145841;23;19923;-85
2022/11/30 00:18:31;;;;;;;;;;;;;;;;;;6145351;23;19951;-84
2022/11/30 00:20:57;;;;;;;;;;;;;;;;;;6156076;23;19950;-85
2022/11/30 00:23:23;;;;;;;;;;;;;;;;;;6144914;23;19924;-85
2022/11/30 00:25:49;;;;;;;;;;;;;;;;;;6120918;23;20010;-85
2022/11/30 00:28:15;;;;;;;;;;;;;;;;;;6148029;23;19916;-84
2022/11/30 00:30:41;;;;;;;;;;;;;;;;;;6120653;23;19916;-84
2022/11/30 00:33:07;;;;;;;;;;;;;;;;;;6123563;23;19963;-84
2022/11/30 00:35:33;;;;;;;;;;;;;;;;;;6152732;23;20158;-85
2022/11/30 00:37:58;;;;;;;;;;;;;;;;;;6119198;23;19927;-85
2022/11/30 00:40:24;;;;;;;;;;;;;;;;;;6146214;23;19920;-84
2022/11/30 00:42:50;;;;;;;;;;;;;;;;;;6148857;23;20014;-84
2022/11/30 00:45:16;;;;;;;;;;;;;;;;;;6145817;23;19916;-85
2022/11/30 00:47:42;;;;;;;;;;;;;;;;;;6125222;23;19908;-85
2022/11/30 00:50:08;;;;;;;;;;;;;;;;;;6147153;23;19916;-85
2022/11/30 00:52:34;;;;;;;;;;;;;;;;;;6120607;23;19920;-85
2022/11/30 00:55:00;;;;;;;;;;;;;;;;;;6121656;23;19923;-85
2022/11/30 00:57:26;;;;;;;;;;;;;;;;;;6151603;23;20015;-84
2022/11/30 00:59:52;;;;;;;;;;;;;;;;;;6121132;23;20482;-84
2022/11/30 01:02:18;;;;;;;;;;;;;;;;;;6121434;23;20045;-84
2022/11/30 01:04:44;;;;;;;;;;;;;;;;;;6124506;23;19916;-84
2022/11/30 01:07:10;;;;;;;;;;;;;;;;;;6145084;23;20366;-84
2022/11/30 01:09:35;;;;;;;;;;;;;;;;;;6145115;23;19920;-83
2022/11/30 01:12:01;;;;;;;;;;;;;;;;;;6127340;23;19912;-83
2022/11/30 01:14:27;;;;;;;;;;;;;;;;;;6120329;23;19916;-83
2022/11/30 01:16:53;;;;;;;;;;;;;;;;;;6144286;23;19920;-83
2022/11/30 01:19:19;;;;;;;;;;;;;;;;;;6124130;23;19903;-85
2022/11/30 01:21:45;;;;;;;;;;;;;;;;;;6120087;23;20339;-85
2022/11/30 01:24:11;;;;;;;;;;;;;;;;;;6145772;23;19958;-84
2022/11/30 01:26:37;;;;;;;;;;;;;;;;;;6124483;23;20614;-85
2022/11/30 01:29:03;;;;;;;;;;;;;;;;;;6143812;23;19931;-85
2022/11/30 01:31:29;;;;;;;;;;;;;;;;;;6122260;23;19916;-84
2022/11/30 01:33:55;;;;;;;;;;;;;;;;;;6124971;23;19916;-84
2022/11/30 01:36:21;;;;;;;;;;;;;;;;;;6142380;23;19923;-84
2022/11/30 01:38:47;;;;;;;;;;;;;;;;;;6123868;23;19899;-85
2022/11/30 01:41:13;;;;;;;;;;;;;;;;;;6141929;23;19924;-85
2022/11/30 01:43:39;;;;;;;;;;;;;;;;;;6143094;23;19924;-84
2022/11/30 01:46:05;;;;;;;;;;;;;;;;;;6147043;23;19915;-85
2022/11/30 01:48:31;;;;;;;;;;;;;;;;;;6143684;23;19958;-85
2022/11/30 01:50:56;;;;;;;;;;;;;;;;;;6121965;23;20257;-85
2022/11/30 01:53:22;;;;;;;;;;;;;;;;;;6143225;23;19920;-85
2022/11/30 01:55:48;;;;;;;;;;;;;;;;;;6118480;23;20593;-84
2022/11/30 01:58:14;;;;;;;;;;;;;;;;;;6122741;23;20316;-85
2022/11/30 02:00:40;;;;;;;;;;;;;;;;;;6142699;23;19987;-85
2022/11/30 02:03:06;;;;;;;;;;;;;;;;;;6120094;23;20319;-85
2022/11/30 02:05:32;;;;;;;;;;;;;;;;;;6144920;23;19916;-85
2022/11/30 02:07:58;;;;;;;;;;;;;;;;;;6121225;23;19927;-85
2022/11/30 02:10:24;;;;;;;;;;;;;;;;;;6119711;23;19916;-85
2022/11/30 02:12:50;;;;;;;;;;;;;;;;;;6119731;23;19924;-84
2022/11/30 02:15:16;;;;;;;;;;;;;;;;;;6144652;23;20035;-85
2022/11/30 02:17:42;;;;;;;;;;;;;;;;;;6148231;23;19911;-85
2022/11/30 02:20:08;;;;;;;;;;;;;;;;;;6149535;23;20407;-83
2022/11/30 02:22:34;;;;;;;;;;;;;;;;;;6142479;23;19920;-84
2022/11/30 02:25:00;;;;;;;;;;;;;;;;;;6145731;23;20004;-84
2022/11/30 02:27:26;;;;;;;;;;;;;;;;;;6146706;23;20324;-83
2022/11/30 02:29:52;;;;;;;;;;;;;;;;;;6124890;23;19905;-83
2022/11/30 02:32:18;;;;;;;;;;;;;;;;;;6144261;23;20292;-84
2022/11/30 02:34:43;;;;;;;;;;;;;;;;;;6145983;23;19947;-84
2022/11/30 02:37:09;;;;;;;;;;;;;;;;;;6152579;23;19927;-84
2022/11/30 02:39:35;;;;;;;;;;;;;;;;;;6144854;23;19926;-85
2022/11/30 02:42:01;;;;;;;;;;;;;;;;;;6146403;23;19943;-83
2022/11/30 02:44:27;;;;;;;;;;;;;;;;;;6148118;23;19916;-84
2022/11/30 02:46:53;;;;;;;;;;;;;;;;;;6144402;23;20716;-85
2022/11/30 02:49:19;;;;;;;;;;;;;;;;;;6126683;23;20002;-84
2022/11/30 02:51:45;;;;;;;;;;;;;;;;;;6143860;23;19978;-85
2022/11/30 02:54:11;;;;;;;;;;;;;;;;;;6126598;23;19920;-85
2022/11/30 02:56:37;;;;;;;;;;;;;;;;;;6145550;23;19916;-85
2022/11/30 02:59:03;;;;;;;;;;;;;;;;;;6146544;23;19920;-85
2022/11/30 03:01:29;;;;;;;;;;;;;;;;;;6151141;23;20340;-84
2022/11/30 03:03:55;;;;;;;;;;;;;;;;;;6145088;23;20493;-85
2022/11/30 03:06:21;;;;;;;;;;;;;;;;;;6121138;23;19916;-85
2022/11/30 03:08:47;;;;;;;;;;;;;;;;;;6151066;23;19954;-85
2022/11/30 03:11:13;;;;;;;;;;;;;;;;;;6121040;23;19924;-84
2022/11/30 03:13:38;;;;;;;;;;;;;;;;;;6122360;23;20018;-85
2022/11/30 03:16:04;;;;;;;;;;;;;;;;;;6147527;23;19916;-84
2022/11/30 03:18:30;;;;;;;;;;;;;;;;;;6145759;23;19926;-84
2022/11/30 03:20:56;;;;;;;;;;;;;;;;;;6147778;23;19939;-84
2022/11/30 03:23:22;;;;;;;;;;;;;;;;;;6145190;23;20196;-85
2022/11/30 03:25:48;;;;;;;;;;;;;;;;;;6145737;23;19992;-83
2022/11/30 03:28:14;;;;;;;;;;;;;;;;;;6148983;23;19951;-84
2022/11/30 03:30:40;;;;;;;;;;;;;;;;;;6120985;23;19924;-85
2022/11/30 03:33:06;;;;;;;;;;;;;;;;;;6152062;23;19920;-83
2022/11/30 03:35:32;;;;;;;;;;;;;;;;;;6145516;23;19916;-84
2022/11/30 03:37:58;;;;;;;;;;;;;;;;;;6145630;23;19916;-83
2022/11/30 03:40:24;;;;;;;;;;;;;;;;;;6125782;23;19920;-85
2022/11/30 03:42:50;;;;;;;;;;;;;;;;;;6121688;23;19970;-85
2022/11/30 03:45:15;;;;;;;;;;;;;;;;;;6152018;23;20335;-84
2022/11/30 03:47:41;;;;;;;;;;;;;;;;;;6146093;23;20056;-82
2022/11/30 03:50:07;;;;;;;;;;;;;;;;;;6146151;23;19924;-83
2022/11/30 03:52:33;;;;;;;;;;;;;;;;;;6121670;23;20299;-85
2022/11/30 03:54:59;;;;;;;;;;;;;;;;;;6150237;23;19916;-85
2022/11/30 03:57:25;;;;;;;;;;;;;;;;;;6121287;23;19916;-85
2022/11/30 03:59:51;;;;;;;;;;;;;;;;;;6121587;23;19975;-85
2022/11/30 04:02:17;;;;;;;;;;;;;;;;;;6153923;23;20229;-85
2022/11/30 04:04:43;;;;;;;;;;;;;;;;;;6120891;23;19924;-85
2022/11/30 04:07:09;;;;;;;;;;;;;;;;;;6121293;23;19979;-85
2022/11/30 04:09:35;;;;;;;;;;;;;;;;;;6150099;23;19923;-85
2022/11/30 04:12:01;;;;;;;;;;;;;;;;;;6146741;23;20610;-84
2022/11/30 04:14:27;;;;;;;;;;;;;;;;;;6145254;23;19916;-84
2022/11/30 04:16:53;;;;;;;;;;;;;;;;;;6124391;23;19975;-84
2022/11/30 04:19:19;;;;;;;;;;;;;;;;;;6121156;23;20324;-85
2022/11/30 04:21:45;;;;;;;;;;;;;;;;;;6151672;23;19904;-85
2022/11/30 04:24:10;;;;;;;;;;;;;;;;;;6146336;23;20244;-83
2022/11/30 04:26:37;;;;;;;;;;;;;;;;;;6144311;23;20024;-84
2022/11/30 04:29:04;;;;;;;;;;;;;;;;;;6148173;23;19956;-84
2022/11/30 04:31:30;;;;;;;;;;;;;;;;;;6147513;23;19924;-85
2022/11/30 04:33:55;;;;;;;;;;;;;;;;;;6120326;23;19916;-84
2022/11/30 04:36:21;;;;;;;;;;;;;;;;;;6124141;23;19947;-85
2022/11/30 04:38:47;;;;;;;;;;;;;;;;;;6143403;23;19945;-84
2022/11/30 04:41:13;;;;;;;;;;;;;;;;;;6144805;23;19986;-84
2022/11/30 04:43:39;;;;;;;;;;;;;;;;;;6122493;23;19916;-84
2022/11/30 04:46:05;;;;;;;;;;;;;;;;;;6146271;23;20271;-84
2022/11/30 04:48:31;;;;;;;;;;;;;;;;;;6144680;23;19916;-84
2022/11/30 04:50:57;;;;;;;;;;;;;;;;;;6147898;23;20386;-85
2022/11/30 04:53:23;;;;;;;;;;;;;;;;;;6120361;23;20241;-84
2022/11/30 04:55:49;;;;;;;;;;;;;;;;;;6148708;23;19916;-85
2022/11/30 04:58:15;;;;;;;;;;;;;;;;;;6146832;23;19916;-85
2022/11/30 05:00:41;;;;;;;;;;;;;;;;;;6145160;23;20732;-85
2022/11/30 05:03:07;;;;;;;;;;;;;;;;;;6147150;23;19920;-84
2022/11/30 05:05:33;;;;;;;;;;;;;;;;;;6118652;23;19920;-84
2022/11/30 05:07:59;;;;;;;;;;;;;;;;;;6124739;23;19916;-84
2022/11/30 05:10:24;;;;;;;;;;;;;;;;;;6144862;23;19915;-85
2022/11/30 05:12:51;;;;;;;;;;;;;;;;;;6121161;23;19954;-84
2022/11/30 05:15:17;;;;;;;;;;;;;;;;;;6123055;23;19956;-84
2022/11/30 05:17:43;;;;;;;;;;;;;;;;;;6144693;23;20387;-84
2022/11/30 05:20:09;;;;;;;;;;;;;;;;;;6148893;23;19916;-84
2022/11/30 05:22:35;;;;;;;;;;;;;;;;;;6144514;23;19926;-84
2022/11/30 05:25:01;;;;;;;;;;;;;;;;;;6152844;23;19939;-84
2022/11/30 05:27:27;;;;;;;;;;;;;;;;;;6142750;23;19916;-82
2022/11/30 05:29:53;;;;;;;;;;;;;;;;;;6143825;23;19920;-85
2022/11/30 05:32:18;;;;;;;;;;;;;;;;;;6144560;23;19919;-83
2022/11/30 05:34:44;;;;;;;;;;;;;;;;;;6142675;23;19916;-84
2022/11/30 05:37:10;;;;;;;;;;;;;;;;;;6126061;23;20335;-86
2022/11/30 05:39:36;;;;;;;;;;;;;;;;;;6121132;23;19942;-83
2022/11/30 05:42:02;;;;;;;;;;;;;;;;;;6144603;23;20376;-84
2022/11/30 05:44:28;;;;;;;;;;;;;;;;;;6124516;23;20492;-88
2022/11/30 05:46:54;;;;;;;;;;;;;;;;;;6119268;23;19966;-88
2022/11/30 05:49:20;;;;;;;;;;;;;;;;;;6152146;23;19920;-89
2022/11/30 05:51:46;;;;;;;;;;;;;;;;;;6145364;23;19915;-88
2022/11/30 05:54:12;;;;;;;;;;;;;;;;;;6144785;23;19967;-87
2022/11/30 05:56:38;;;;;;;;;;;;;;;;;;6158074;23;19923;-83
2022/11/30 05:59:04;;;;;;;;;;;;;;;;;;6145823;23;19916;-87
2022/11/30 06:01:30;;;;;;;;;;;;;;;;;;6147163;23;19916;-87
2022/11/30 06:03:56;;;;;;;;;;;;;;;;;;6145778;23;19931;-85
2022/11/30 06:06:22;;;;;;;;;;;;;;;;;;6124458;23;19951;-86
2022/11/30 06:08:48;;;;;;;;;;;;;;;;;;6146378;23;20339;-90
2022/11/30 06:11:13;;;;;;;;;;;;;;;;;;6130064;23;19916;-82
2022/11/30 06:13:39;;;;;;;;;;;;;;;;;;6120779;23;20397;-82
2022/11/30 06:16:05;;;;;;;;;;;;;;;;;;6144424;23;20405;-81
2022/11/30 06:18:31;;;;;;;;;;;;;;;;;;6120249;23;19916;-82
2022/11/30 06:20:57;;;;;;;;;;;;;;;;;;6145317;23;19923;-81
2022/11/30 06:23:23;;;;;;;;;;;;;;;;;;6147410;23;20322;-82
2022/11/30 06:25:49;;;;;;;;;;;;;;;;;;6144939;23;19916;-81
2022/11/30 06:28:15;;;;;;;;;;;;;;;;;;6146606;23;19947;-81
2022/11/30 06:30:41;;;;;;;;;;;;;;;;;;6146755;23;19920;-82
2022/11/30 06:33:07;;;;;;;;;;;;;;;;;;6145413;23;19915;-81
2022/11/30 06:35:33;;;;;;;;;;;;;;;;;;6147092;23;19932;-81
2022/11/30 06:37:59;;;;;;;;;;;;;;;;;;6146226;23;19987;-82
2022/11/30 06:40:25;;;;;;;;;;;;;;;;;;6148008;23;20408;-82
2022/11/30 06:42:51;;;;;;;;;;;;;;;;;;6146547;23;19931;-81
2022/11/30 06:45:17;;;;;;;;;;;;;;;;;;6147441;23;19916;-81
2022/11/30 06:47:43;;;;;;;;;;;;;;;;;;6147351;23;19924;-81
2022/11/30 06:50:09;;;;;;;;;;;;;;;;;;6120421;23;20331;-81
2022/11/30 06:52:35;;;;;;;;;;;;;;;;;;6147111;23;20010;-82
2022/11/30 06:55:01;;;;;;;;;;;;;;;;;;6145925;23;19916;-82
2022/11/30 06:57:27;;;;;;;;;;;;;;;;;;6147996;23;19916;-82
2022/11/30 06:59:52;;;;;;;;;;;;;;;;;;6120823;23;20513;-82
2022/11/30 07:02:18;;;;;;;;;;;;;;;;;;6148733;23;19924;-82
2022/11/30 07:04:44;;;;;;;;;;;;;;;;;;6145020;23;20255;-81
2022/11/30 07:07:10;;;;;;;;;;;;;;;;;;6124056;23;19958;-81
2022/11/30 07:09:36;;;;;;;;;;;;;;;;;;6145282;23;20351;-81
2022/11/30 07:12:02;;;;;;;;;;;;;;;;;;6122114;23;19920;-81
2022/11/30 07:14:29;;;;;;;;;;;;;;;;;;6145921;23;20236;-81
2022/11/30 07:16:55;;;;;;;;;;;;;;;;;;6145339;23;19986;-82
2022/11/30 07:19:21;;;;;;;;;;;;;;;;;;6121077;23;20407;-82
2022/11/30 07:21:47;;;;;;;;;;;;;;;;;;6121717;23;19952;-81
2022/11/30 07:26:58;;;;;;;;;;;;;;;;;;6170742;23;19922;-81
2022/11/30 07:29:24;;;;;;;;;;;;;;;;;;6145789;23;20446;-81
2022/11/30 07:31:51;;;;;;;;;;;;;;;;;;6145746;23;20031;-82
2022/11/30 07:34:17;;;;;;;;;;;;;;;;;;6146390;23;19916;-81
2022/11/30 07:36:43;;;;;;;;;;;;;;;;;;6145737;23;20331;-82
2022/11/30 07:39:09;;;;;;;;;;;;;;;;;;6142383;23;20367;-81
2022/11/30 07:41:35;;;;;;;;;;;;;;;;;;6118913;23;19962;-82
2022/11/30 07:44:01;;;;;;;;;;;;;;;;;;6120929;23;20355;-81
2022/11/30 07:46:27;;;;;;;;;;;;;;;;;;6121865;23;19916;-80
2022/11/30 07:48:53;;;;;;;;;;;;;;;;;;6118954;23;20374;-80
2022/11/30 07:51:18;;;;;;;;;;;;;;;;;;6143472;23;19924;-80
2022/11/30 07:53:47;;;;;;;;;;;;;;;;;;6120087;23;19916;-78
2022/11/30 07:56:14;;;;;;;;;;;;;;;;;;6120200;23;19920;-81
2022/11/30 07:58:40;;;;;;;;;;;;;;;;;;6120357;23;19923;-78
2022/11/30 08:01:06;;;;;;;;;;;;;;;;;;6145010;23;19953;-78
2022/11/30 08:03:32;;;;;;;;;;;;;;;;;;6121418;23;19927;-82
2022/11/30 08:05:58;;;;;;;;;;;;;;;;;;6147521;23;19923;-82
2022/11/30 08:08:24;;;;;;;;;;;;;;;;;;6145279;23;20370;-81
2022/11/30 08:10:49;;;;;;;;;;;;;;;;;;6122293;23;19982;-82
2022/11/30 08:13:15;;;;;;;;;;;;;;;;;;6144987;23;20399;-83
2022/11/30 08:15:42;;;;;;;;;;;;;;;;;;6146405;23;19958;-83
2022/11/30 08:18:07;;;;;;;;;;;;;;;;;;6146046;23;20275;-80
2022/11/30 08:20:33;;;;;;;;;;;;;;;;;;6120984;23;19927;-80
2022/11/30 08:22:59;;;;;;;;;;;;;;;;;;6122050;23;19920;-79
2022/11/30 08:25:25;;;;;;;;;;;;;;;;;;6120910;23;19916;-79
2022/11/30 08:27:51;;;;;;;;;;;;;;;;;;6120071;23;20035;-79
2022/11/30 08:30:17;;;;;;;;;;;;;;;;;;6120415;23;19916;-81
2022/11/30 08:32:43;;;;;;;;;;;;;;;;;;6120023;23;20151;-82
2022/11/30 08:35:09;;;;;;;;;;;;;;;;;;6121223;23;19919;-80
2022/11/30 08:37:35;;;;;;;;;;;;;;;;;;6145614;23;20383;-80
2022/11/30 08:40:02;;;;;;;;;;;;;;;;;;6145673;23;19920;-81
2022/11/30 08:42:28;;;;;;;;;;;;;;;;;;6119542;23;19927;-80
2022/11/30 08:44:54;;;;;;;;;;;;;;;;;;6120899;23;19931;-80
2022/11/30 08:47:20;;;;;;;;;;;;;;;;;;6146068;23;20359;-80
2022/11/30 08:49:46;;;;;;;;;;;;;;;;;;6144963;23;19915;-81
2022/11/30 08:52:12;;;;;;;;;;;;;;;;;;6121228;23;19923;-81
2022/11/30 08:54:41;;;;;;;;;;;;;;;;;;6120737;23;19916;-80
2022/11/30 08:57:07;;;;;;;;;;;;;;;;;;6144621;23;20352;-80
2022/11/30 08:59:33;;;;;;;;;;;;;;;;;;6145895;23;20011;-79
2022/11/30 09:01:59;;;;;;;;;;;;;;;;;;6144717;23;19912;-81
2022/11/30 09:04:25;;;;;;;;;;;;;;;;;;6119426;23;19923;-81
2022/11/30 09:06:51;;;;;;;;;;;;;;;;;;6144651;23;19965;-79
2022/11/30 09:09:16;;;;;;;;;;;;;;;;;;6145035;23;19916;-80
2022/11/30 09:11:42;;;;;;;;;;;;;;;;;;6143155;23;20332;-79
2022/11/30 09:14:08;;;;;;;;;;;;;;;;;;6118745;23;19991;-79
2022/11/30 09:16:34;;;;;;;;;;;;;;;;;;6119845;23;19923;-80
2022/11/30 09:19:00;;;;;;;;;;;;;;;;;;6121024;23;20399;-79
2022/11/30 09:21:26;;;;;;;;;;;;;;;;;;6144496;23;19916;-80
2022/11/30 09:23:52;;;;;;;;;;;;;;;;;;6145981;23;20334;-80
2022/11/30 09:26:18;;;;;;;;;;;;;;;;;;6119235;23;19920;-80
2022/11/30 09:28:44;;;;;;;;;;;;;;;;;;6145264;23;19920;-81
2022/11/30 09:31:10;;;;;;;;;;;;;;;;;;6120242;23;20570;-81
2022/11/30 09:33:36;;;;;;;;;;;;;;;;;;6120584;23;19923;-80
2022/11/30 09:36:02;;;;;;;;;;;;;;;;;;6145750;23;19960;-79
2022/11/30 09:38:28;;;;;;;;;;;;;;;;;;6144569;23;19943;-80
2022/11/30 09:40:54;;;;;;;;;;;;;;;;;;6116800;23;19975;-80
2022/11/30 09:43:20;;;;;;;;;;;;;;;;;;6114983;23;19924;-80
2022/11/30 09:45:46;;;;;;;;;;;;;;;;;;6090762;23;19920;-82
2022/11/30 09:48:12;;;;;;;;;;;;;;;;;;6090517;23;19917;-81
2022/11/30 09:50:38;;;;;;;;;;;;;;;;;;6092810;23;19924;-81
2022/11/30 09:53:04;;;;;;;;;;;;;;;;;;6091929;23;20059;-87
2022/11/30 09:55:30;;;;;;;;;;;;;;;;;;6117737;23;20367;-81
2022/11/30 09:57:56;;;;;;;;;;;;;;;;;;6115739;23;20260;-80
2022/11/30 10:00:22;;;;;;;;;;;;;;;;;;6115823;23;19962;-81
2022/11/30 10:02:48;;;;;;;;;;;;;;;;;;6116058;23;19925;-80
2022/11/30 10:05:13;;;;;;;;;;;;;;;;;;6114556;23;20288;-79
2022/11/30 10:07:39;;;;;;;;;;;;;;;;;;6115339;23;19917;-79
2022/11/30 10:10:05;;;;;;;;;;;;;;;;;;6114378;23;19920;-79
2022/11/30 10:12:31;;;;;;;;;;;;;;;;;;6090911;23;19972;-79
2022/11/30 10:14:57;;;;;;;;;;;;;;;;;;6090820;23;20262;-81
2022/11/30 10:17:23;;;;;;;;;;;;;;;;;;6089343;23;19925;-79
2022/11/30 10:19:49;;;;;;;;;;;;;;;;;;6114385;23;19916;-79
2022/11/30 10:22:15;;;;;;;;;;;;;;;;;;6090797;23;19917;-78
2022/11/30 10:24:41;;;;;;;;;;;;;;;;;;6114083;23;19967;-79
2022/11/30 10:27:07;;;;;;;;;;;;;;;;;;6114428;23;20332;-81
2022/11/30 10:29:34;;;;;;;;;;;;;;;;;;6091379;23;19921;-83
2022/11/30 10:32:00;;;;;;;;;;;;;;;;;;6090955;23;19916;-85
2022/11/30 10:34:26;;;;;;;;;;;;;;;;;;6091533;23;20333;-77
2022/11/30 10:36:52;;;;;;;;;;;;;;;;;;6114385;23;19934;-80
2022/11/30 10:39:18;;;;;;;;;;;;;;;;;;6113515;23;19916;-79
2022/11/30 10:41:44;;;;;;;;;;;;;;;;;;6138317;23;19920;-78
2022/11/30 10:44:10;;;;;;;;;;;;;;;;;;6138964;23;19920;-78
2022/11/30 10:46:36;;;;;;;;;;;;;;;;;;6139886;23;19920;-78
2022/11/30 10:49:02;;;;;;;;;;;;;;;;;;6091818;23;19916;-78
2022/11/30 10:51:28;;;;;;;;;;;;;;;;;;6140139;23;20625;-80
2022/11/30 10:53:53;;;;;;;;;;;;;;;;;;6092282;23;19920;-79
2022/11/30 10:56:19;;;;;;;;;;;;;;;;;;6141451;23;19916;-78
2022/11/30 10:58:45;;;;;;;;;;;;;;;;;;6091107;23;19959;-79
2022/11/30 11:01:11;;;;;;;;;;;;;;;;;;6141494;23;19916;-79
2022/11/30 11:03:37;;;;;;;;;;;;;;;;;;6141096;23;19946;-79
2022/11/30 11:06:03;;;;;;;;;;;;;;;;;;6140463;23;20700;-78
2022/11/30 11:08:29;;;;;;;;;;;;;;;;;;6091751;23;19920;-78
2022/11/30 11:10:55;;;;;;;;;;;;;;;;;;6092297;23;19916;-79
2022/11/30 11:13:21;;;;;;;;;;;;;;;;;;6091380;23;19916;-78
2022/11/30 11:15:47;;;;;;;;;;;;;;;;;;6140412;23;20225;-79
2022/11/30 11:18:13;;;;;;;;;;;;;;;;;;6090536;23;19921;-79
2022/11/30 11:20:42;;;;;;;;;;;;;;;;;;6139749;23;20019;-78
2022/11/30 11:23:08;;;;;;;;;;;;;;;;;;6140370;23;19978;-79
2022/11/30 11:25:34;;;;;;;;;;;;;;;;;;6141165;23;19955;-79
2022/11/30 11:28:00;;;;;;;;;;;;;;;;;;6091657;23;19923;-79
2022/11/30 11:30:26;;;;;;;;;;;;;;;;;;6139761;23;20256;-80
2022/11/30 11:32:52;;;;;;;;;;;;;;;;;;6091713;23;20239;-78
2022/11/30 11:35:19;;;;;;;;;;;;;;;;;;6091525;23;19916;-79
2022/11/30 11:37:45;;;;;;;;;;;;;;;;;;6091003;23;19963;-81
2022/11/30 11:40:11;;;;;;;;;;;;;;;;;;6093354;23;19920;-77
2022/11/30 11:42:37;;;;;;;;;;;;;;;;;;6115417;23;19951;-80
2022/11/30 11:45:03;;;;;;;;;;;;;;;;;;6114499;23;19961;-77
2022/11/30 11:47:29;;;;;;;;;;;;;;;;;;6090652;23;20362;-77
2022/11/30 11:49:55;;;;;;;;;;;;;;;;;;6091369;23;19983;-78
2022/11/30 11:52:21;;;;;;;;;;;;;;;;;;6089762;23;20354;-77
2022/11/30 11:54:47;;;;;;;;;;;;;;;;;;6114713;23;20390;-76
2022/11/30 11:57:13;;;;;;;;;;;;;;;;;;6089044;23;19920;-78
2022/11/30 11:59:39;;;;;;;;;;;;;;;;;;6089530;23;20605;-77
2022/11/30 12:02:05;;;;;;;;;;;;;;;;;;6089407;23;19920;-80
2022/11/30 12:04:31;;;;;;;;;;;;;;;;;;6088662;23;20637;-79
2022/11/30 12:06:57;;;;;;;;;;;;;;;;;;6090410;23;20387;-79
2022/11/30 12:09:23;;;;;;;;;;;;;;;;;;6089890;23;19991;-78
2022/11/30 12:11:49;;;;;;;;;;;;;;;;;;6090034;23;19994;-78
2022/11/30 12:14:15;;;;;;;;;;;;;;;;;;6113769;23;19947;-79
2022/11/30 12:16:41;;;;;;;;;;;;;;;;;;6089396;23;19983;-78
2022/11/30 12:19:07;;;;;;;;;;;;;;;;;;6114464;23;19916;-78
2022/11/30 12:21:33;;;;;;;;;;;;;;;;;;6114821;23;19920;-77
2022/11/30 12:23:59;;;;;;;;;;;;;;;;;;6089849;23;19921;-77
2022/11/30 12:26:25;;;;;;;;;;;;;;;;;;6113948;23;20016;-78
2022/11/30 12:28:51;;;;;;;;;;;;;;;;;;6113797;23;19945;-78
2022/11/30 12:31:17;;;;;;;;;;;;;;;;;;6114975;23;19923;-78
2022/11/30 12:33:43;;;;;;;;;;;;;;;;;;6089982;23;20340;-78
2022/11/30 12:36:09;;;;;;;;;;;;;;;;;;6114517;23;20032;-78
2022/11/30 12:38:34;;;;;;;;;;;;;;;;;;6089218;23;19916;-78
2022/11/30 12:41:00;;;;;;;;;;;;;;;;;;6106929;23;19920;-77
2022/11/30 12:43:27;;;;;;;;;;;;;;;;;;6142671;23;19927;-78
2022/11/30 12:45:53;;;;;;;;;;;;;;;;;;6143373;23;19970;-78
2022/11/30 12:48:19;;;;;;;;;;;;;;;;;;6116706;23;19916;-77
2022/11/30 12:50:45;;;;;;;;;;;;;;;;;;6117165;23;19916;-78
2022/11/30 12:53:11;;;;;;;;;;;;;;;;;;6117989;23;19920;-78
2022/11/30 12:55:37;;;;;;;;;;;;;;;;;;6118487;23;19915;-78
2022/11/30 12:58:03;;;;;;;;;;;;;;;;;;6143218;23;20141;-78
2022/11/30 13:00:29;;;;;;;;;;;;;;;;;;6143776;23;20025;-77
2022/11/30 13:02:55;;;;;;;;;;;;;;;;;;6118335;23;19942;-77
2022/11/30 13:05:21;;;;;;;;;;;;;;;;;;6118682;23;20675;-78
2022/11/30 13:07:47;;;;;;;;;;;;;;;;;;6143997;23;20303;-77
2022/11/30 13:10:13;;;;;;;;;;;;;;;;;;6118785;23;19924;-78
2022/11/30 13:12:39;;;;;;;;;;;;;;;;;;6143330;23;19920;-77
2022/11/30 13:15:05;;;;;;;;;;;;;;;;;;6142993;23;19931;-77
2022/11/30 13:17:31;;;;;;;;;;;;;;;;;;6143251;23;19916;-78
2022/11/30 13:19:57;;;;;;;;;;;;;;;;;;6120424;23;19916;-83
2022/11/30 13:22:23;;;;;;;;;;;;;;;;;;6118151;23;19916;-79
2022/11/30 13:24:49;;;;;;;;;;;;;;;;;;6143779;23;19923;-78
2022/11/30 13:27:15;;;;;;;;;;;;;;;;;;6119493;23;20331;-79
2022/11/30 13:29:41;;;;;;;;;;;;;;;;;;6144695;23;19920;-79
2022/11/30 13:32:07;;;;;;;;;;;;;;;;;;6118784;23;19927;-78
2022/11/30 13:34:33;;;;;;;;;;;;;;;;;;6120253;23;19916;-78
2022/11/30 13:36:58;;;;;;;;;;;;;;;;;;6144697;23;19952;-78
2022/11/30 13:39:24;;;;;;;;;;;;;;;;;;6120273;23;19999;-79
2022/11/30 13:41:50;;;;;;;;;;;;;;;;;;6120179;23;19920;-79
2022/11/30 13:44:16;;;;;;;;;;;;;;;;;;6144192;23;19999;-77
2022/11/30 13:46:42;;;;;;;;;;;;;;;;;;6143681;23;19923;-79
2022/11/30 13:49:08;;;;;;;;;;;;;;;;;;6117874;23;19916;-79
2022/11/30 13:51:34;;;;;;;;;;;;;;;;;;6119448;23;19990;-77
2022/11/30 13:54:00;;;;;;;;;;;;;;;;;;6118620;23;19916;-80
2022/11/30 13:56:26;;;;;;;;;;;;;;;;;;6143003;23;19923;-77
2022/11/30 13:58:52;;;;;;;;;;;;;;;;;;6143528;23;19916;-77
2022/11/30 14:01:18;;;;;;;;;;;;;;;;;;6142743;23;20399;-77
2022/11/30 14:03:44;;;;;;;;;;;;;;;;;;6118260;23;19956;-78
2022/11/30 14:06:10;;;;;;;;;;;;;;;;;;6119181;23;19920;-77
2022/11/30 14:08:36;;;;;;;;;;;;;;;;;;6143842;23;20020;-77
2022/11/30 14:11:02;;;;;;;;;;;;;;;;;;6118146;23;19923;-76
2022/11/30 14:13:28;;;;;;;;;;;;;;;;;;6143074;23;19916;-77
2022/11/30 14:15:54;;;;;;;;;;;;;;;;;;6141904;23;19966;-77
2022/11/30 14:18:20;;;;;;;;;;;;;;;;;;6141934;23;19952;-77
2022/11/30 14:20:48;;;;;;;;;;;;;;;;;;6118193;23;19970;-77
2022/11/30 14:23:14;;;;;;;;;;;;;;;;;;6120703;23;20248;-77
2022/11/30 14:25:40;;;;;;;;;;;;;;;;;;6144905;23;19923;-77
2022/11/30 14:28:08;;;;;;;;;;;;;;;;;;6144868;23;19920;-77
2022/11/30 14:30:34;;;;;;;;;;;;;;;;;;6144187;23;20011;-78
2022/11/30 14:33:00;;;;;;;;;;;;;;;;;;6145553;23;20371;-78
2022/11/30 14:35:26;;;;;;;;;;;;;;;;;;6144803;23;19920;-77
2022/11/30 14:37:52;;;;;;;;;;;;;;;;;;6120724;23;19920;-77
2022/11/30 14:40:18;;;;;;;;;;;;;;;;;;6114836;23;20346;-78
2022/11/30 14:42:44;;;;;;;;;;;;;;;;;;6090765;23;20209;-77
2022/11/30 14:45:10;;;;;;;;;;;;;;;;;;6090646;23;19917;-77
2022/11/30 14:47:36;;;;;;;;;;;;;;;;;;6091753;23;19923;-77
2022/11/30 14:50:04;;;;;;;;;;;;;;;;;;6115223;23;20375;-78
2022/11/30 14:52:30;;;;;;;;;;;;;;;;;;6091235;23;19924;-77
2022/11/30 14:54:56;;;;;;;;;;;;;;;;;;6115225;23;19925;-77
2022/11/30 14:57:22;;;;;;;;;;;;;;;;;;6114794;23;19939;-77
2022/11/30 14:59:48;;;;;;;;;;;;;;;;;;6115178;23;19916;-77
2022/11/30 15:02:14;;;;;;;;;;;;;;;;;;6091827;23;19921;-77
2022/11/30 15:04:40;;;;;;;;;;;;;;;;;;6115155;23;20021;-77
2022/11/30 15:07:06;;;;;;;;;;;;;;;;;;6114667;23;19921;-77
2022/11/30 15:09:32;;;;;;;;;;;;;;;;;;6115388;23;19917;-78
2022/11/30 15:11:58;;;;;;;;;;;;;;;;;;6089770;23;20355;-77
2022/11/30 15:14:23;;;;;;;;;;;;;;;;;;6088605;23;19917;-77
2022/11/30 15:16:51;;;;;;;;;;;;;;;;;;6114161;23;19916;-76
2022/11/30 15:19:17;;;;;;;;;;;;;;;;;;6090254;23;19975;-77
2022/11/30 15:21:43;;;;;;;;;;;;;;;;;;6089657;23;19924;-77
2022/11/30 15:24:09;;;;;;;;;;;;;;;;;;6089961;23;19921;-77
2022/11/30 15:26:35;;;;;;;;;;;;;;;;;;6113742;23;19916;-77
2022/11/30 15:29:01;;;;;;;;;;;;;;;;;;6114613;23;19916;-78
2022/11/30 15:31:27;;;;;;;;;;;;;;;;;;6088885;23;19923;-78
2022/11/30 15:33:53;;;;;;;;;;;;;;;;;;6088682;23;19921;-78
2022/11/30 15:36:19;;;;;;;;;;;;;;;;;;6114737;23;19916;-79
2022/11/30 15:38:45;;;;;;;;;;;;;;;;;;6089611;23;19920;-78
2022/11/30 15:41:11;;;;;;;;;;;;;;;;;;6108710;23;19924;-77
2022/11/30 15:43:37;;;;;;;;;;;;;;;;;;6143606;23;19920;-77
2022/11/30 15:46:03;;;;;;;;;;;;;;;;;;6119598;23;20349;-77
2022/11/30 15:48:29;;;;;;;;;;;;;;;;;;6118040;23;20132;-78
2022/11/30 15:50:55;;;;;;;;;;;;;;;;;;6140985;23;20002;-77
2022/11/30 15:53:21;;;;;;;;;;;;;;;;;;6116446;23;19920;-78
2022/11/30 15:55:47;;;;;;;;;;;;;;;;;;6140551;23;19923;-78
2022/11/30 15:58:13;;;;;;;;;;;;;;;;;;6142966;23;19920;-78
2022/11/30 16:00:39;;;;;;;;;;;;;;;;;;6141876;23;19926;-80
2022/11/30 16:03:05;;;;;;;;;;;;;;;;;;6140594;23;20356;-78
2022/11/30 16:05:31;;;;;;;;;;;;;;;;;;6118328;23;19923;-79
2022/11/30 16:08:02;;;;;;;;;;;;;;;;;;6143778;23;20275;-78
2022/11/30 16:10:28;;;;;;;;;;;;;;;;;;6142669;23;19920;-78
2022/11/30 16:12:54;;;;;;;;;;;;;;;;;;6143715;23;19920;-77
2022/11/30 16:15:20;;;;;;;;;;;;;;;;;;6119545;23;20016;-78
2022/11/30 16:17:46;;;;;;;;;;;;;;;;;;6118428;23;19915;-77
2022/11/30 16:20:15;;;;;;;;;;;;;;;;;;6119528;23;20336;-78
2022/11/30 16:22:41;;;;;;;;;;;;;;;;;;6118000;23;19919;-78
2022/11/30 16:25:07;;;;;;;;;;;;;;;;;;6118439;23;19920;-78
2022/11/30 16:27:33;;;;;;;;;;;;;;;;;;6144166;23;19923;-78
2022/11/30 16:29:59;;;;;;;;;;;;;;;;;;6143737;23;20089;-78
2022/11/30 16:32:25;;;;;;;;;;;;;;;;;;6144004;23;20247;-78
2022/11/30 16:34:51;;;;;;;;;;;;;;;;;;6118673;23;20259;-77
2022/11/30 16:37:17;;;;;;;;;;;;;;;;;;6119173;23;20283;-78
2022/11/30 16:39:43;;;;;;;;;;;;;;;;;;6142784;23;20323;-78